sensor_id;sensor_type;location;lat;lon;timestamp;temperature;humidity
56542;DHT22;42438;53.174;6.730;2022-12-11T00:01:44;-1.40;99.90
56542;DHT22;42438;53.174;6.730;2022-12-11T00:04:15;-1.40;99.90
56542;DHT22;42438;53.174;6.730;2022-12-11T00:06:46;-1.40;99.90
56542;DHT22;42438;53.174;6.730;2022-12-11T00:09:20;-1.50;99.90
56542;DHT22;42438;53.174;6.730;2022-12-11T00:11:50;-1.50;99.90
56542;DHT22;42438;53.174;6.730;2022-12-11T00:14:21;-1.30;99.90
56542;DHT22;42438;53.174;6.730;2022-12-11T00:16:52;-1.50;99.90
56542;DHT22;42438;53.174;6.730;2022-12-11T00:19:22;-1.40;99.90
56542;DHT22;42438;53.174;6.730;2022-12-11T00:21:53;-1.00;99.90
56542;DHT22;42438;53.174;6.730;2022-12-11T00:24:24;-1.50;99.90
56542;DHT22;42438;53.174;6.730;2022-12-11T00:26:54;-1.30;99.90
56542;DHT22;42438;53.174;6.730;2022-12-11T00:29:25;-1.20;99.90
56542;DHT22;42438;53.174;6.730;2022-12-11T00:31:56;-1.40;99.90
56542;DHT22;42438;53.174;6.730;2022-12-11T00:34:27;-1.30;99.90
56542;DHT22;42438;53.174;6.730;2022-12-11T00:36:57;-1.30;99.90
56542;DHT22;42438;53.174;6.730;2022-12-11T00:39:28;-1.30;99.90
56542;DHT22;42438;53.174;6.730;2022-12-11T00:41:59;-1.40;99.90
56542;DHT22;42438;53.174;6.730;2022-12-11T00:44:29;-0.40;99.90
56542;DHT22;42438;53.174;6.730;2022-12-11T00:47:00;-1.40;99.90
56542;DHT22;42438;53.174;6.730;2022-12-11T00:49:31;-1.40;99.90
56542;DHT22;42438;53.174;6.730;2022-12-11T00:52:02;-1.20;99.90
56542;DHT22;42438;53.174;6.730;2022-12-11T00:54:33;-1.20;99.90
56542;DHT22;42438;53.174;6.730;2022-12-11T00:57:03;-1.20;99.90
56542;DHT22;42438;53.174;6.730;2022-12-11T00:59:34;-1.10;99.90
56542;DHT22;42438;53.174;6.730;2022-12-11T01:02:05;-1.10;99.90
56542;DHT22;42438;53.174;6.730;2022-12-11T01:04:36;-0.30;99.90
56542;DHT22;42438;53.174;6.730;2022-12-11T01:07:06;-1.10;99.90
56542;DHT22;42438;53.174;6.730;2022-12-11T01:09:37;-1.20;99.90
56542;DHT22;42438;53.174;6.730;2022-12-11T01:12:26;-1.20;99.90
56542;DHT22;42438;53.174;6.730;2022-12-11T01:14:58;-1.00;99.90
56542;DHT22;42438;53.174;6.730;2022-12-11T01:17:28;-1.10;99.90
56542;DHT22;42438;53.174;6.730;2022-12-11T01:19:59;-0.70;99.90
56542;DHT22;42438;53.174;6.730;2022-12-11T01:22:30;-1.10;99.90
56542;DHT22;42438;53.174;6.730;2022-12-11T01:25:01;-1.10;99.90
56542;DHT22;42438;53.174;6.730;2022-12-11T01:27:32;-1.00;99.90
56542;DHT22;42438;53.174;6.730;2022-12-11T01:30:04;-1.00;99.90
56542;DHT22;42438;53.174;6.730;2022-12-11T01:32:35;-0.90;99.90
56542;DHT22;42438;53.174;6.730;2022-12-11T01:35:07;0.00;99.90
56542;DHT22;42438;53.174;6.730;2022-12-11T01:37:38;-1.00;99.90
56542;DHT22;42438;53.174;6.730;2022-12-11T01:40:12;-0.90;99.90
56542;DHT22;42438;53.174;6.730;2022-12-11T01:42:43;-0.80;99.90
56542;DHT22;42438;53.174;6.730;2022-12-11T01:45:41;0.00;99.90
56542;DHT22;42438;53.174;6.730;2022-12-11T01:48:18;-0.80;99.90
56542;DHT22;42438;53.174;6.730;2022-12-11T01:50:53;0.00;99.90
56542;DHT22;42438;53.174;6.730;2022-12-11T01:53:33;-1.00;99.90
56542;DHT22;42438;53.174;6.730;2022-12-11T01:56:05;-0.80;99.90
56542;DHT22;42438;53.174;6.730;2022-12-11T01:58:45;-0.80;99.90
56542;DHT22;42438;53.174;6.730;2022-12-11T02:02:22;-0.70;99.90
56542;DHT22;42438;53.174;6.730;2022-12-11T02:04:21;-0.80;99.90
56542;DHT22;42438;53.174;6.730;2022-12-11T02:06:53;-0.70;99.90
56542;DHT22;42438;53.174;6.730;2022-12-11T02:09:29;-0.70;99.90
56542;DHT22;42438;53.174;6.730;2022-12-11T02:17:48;-0.70;99.90
56542;DHT22;42438;53.174;6.730;2022-12-11T02:20:47;-0.60;99.90
56542;DHT22;42438;53.174;6.730;2022-12-11T02:23:44;-0.60;99.90
56542;DHT22;42438;53.174;6.730;2022-12-11T02:29:21;-0.80;99.90
56542;DHT22;42438;53.174;6.730;2022-12-11T02:32:06;-0.80;99.90
56542;DHT22;42438;53.174;6.730;2022-12-11T02:34:43;-0.80;99.90
56542;DHT22;42438;53.174;6.730;2022-12-11T02:37:19;-0.60;99.90
56542;DHT22;42438;53.174;6.730;2022-12-11T02:39:53;-0.60;99.90
56542;DHT22;42438;53.174;6.730;2022-12-11T02:42:28;-0.70;99.90
56542;DHT22;42438;53.174;6.730;2022-12-11T02:45:01;0.00;99.90
56542;DHT22;42438;53.174;6.730;2022-12-11T02:47:33;-0.60;99.90
56542;DHT22;42438;53.174;6.730;2022-12-11T02:50:08;-0.60;99.90
56542;DHT22;42438;53.174;6.730;2022-12-11T02:52:41;-0.50;99.90
56542;DHT22;42438;53.174;6.730;2022-12-11T02:55:14;-0.50;99.90
56542;DHT22;42438;53.174;6.730;2022-12-11T02:58:12;-0.60;99.90
56542;DHT22;42438;53.174;6.730;2022-12-11T03:00:44;-0.50;99.90
56542;DHT22;42438;53.174;6.730;2022-12-11T03:03:15;-0.50;99.90
56542;DHT22;42438;53.174;6.730;2022-12-11T03:05:46;-0.50;99.90
56542;DHT22;42438;53.174;6.730;2022-12-11T03:08:17;0.30;99.90
56542;DHT22;42438;53.174;6.730;2022-12-11T03:10:48;-0.60;99.90
56542;DHT22;42438;53.174;6.730;2022-12-11T03:13:20;-0.50;99.90
56542;DHT22;42438;53.174;6.730;2022-12-11T03:18:47;-0.60;99.90
56542;DHT22;42438;53.174;6.730;2022-12-11T03:21:49;-0.50;99.90
56542;DHT22;42438;53.174;6.730;2022-12-11T03:24:26;-0.50;99.90
56542;DHT22;42438;53.174;6.730;2022-12-11T03:27:04;-0.50;99.90
56542;DHT22;42438;53.174;6.730;2022-12-11T03:29:39;-0.50;99.90
56542;DHT22;42438;53.174;6.730;2022-12-11T03:32:15;0.40;99.90
56542;DHT22;42438;53.174;6.730;2022-12-11T03:35:14;-0.50;99.90
56542;DHT22;42438;53.174;6.730;2022-12-11T03:37:47;-0.40;99.90
56542;DHT22;42438;53.174;6.730;2022-12-11T03:40:20;-0.40;99.90
56542;DHT22;42438;53.174;6.730;2022-12-11T03:42:52;-0.50;99.90
56542;DHT22;42438;53.174;6.730;2022-12-11T03:45:26;-0.40;99.90
56542;DHT22;42438;53.174;6.730;2022-12-11T03:48:00;-0.60;99.90
56542;DHT22;42438;53.174;6.730;2022-12-11T03:50:33;-0.50;99.90
56542;DHT22;42438;53.174;6.730;2022-12-11T03:53:04;-0.20;99.90
56542;DHT22;42438;53.174;6.730;2022-12-11T03:55:36;-0.30;99.90
56542;DHT22;42438;53.174;6.730;2022-12-11T03:58:08;-0.30;99.90
56542;DHT22;42438;53.174;6.730;2022-12-11T04:00:39;-0.10;99.90
56542;DHT22;42438;53.174;6.730;2022-12-11T04:03:10;0.00;99.90
56542;DHT22;42438;53.174;6.730;2022-12-11T04:05:49;-0.10;99.90
56542;DHT22;42438;53.174;6.730;2022-12-11T04:08:21;-0.20;99.90
56542;DHT22;42438;53.174;6.730;2022-12-11T04:10:52;-0.20;99.90
56542;DHT22;42438;53.174;6.730;2022-12-11T04:13:41;0.80;99.90
56542;DHT22;42438;53.174;6.730;2022-12-11T04:16:12;-0.10;99.90
56542;DHT22;42438;53.174;6.730;2022-12-11T04:18:43;-0.20;99.90
56542;DHT22;42438;53.174;6.730;2022-12-11T04:21:32;-0.10;99.90
56542;DHT22;42438;53.174;6.730;2022-12-11T04:24:32;-0.30;99.90
56542;DHT22;42438;53.174;6.730;2022-12-11T04:27:03;-0.20;99.90
56542;DHT22;42438;53.174;6.730;2022-12-11T04:29:34;-0.20;99.90
56542;DHT22;42438;53.174;6.730;2022-12-11T04:32:04;0.50;99.90
56542;DHT22;42438;53.174;6.730;2022-12-11T04:34:35;-0.30;99.90
56542;DHT22;42438;53.174;6.730;2022-12-11T04:37:06;-0.10;99.90
56542;DHT22;42438;53.174;6.730;2022-12-11T04:39:36;0.00;99.90
56542;DHT22;42438;53.174;6.730;2022-12-11T04:42:07;-0.20;99.90
56542;DHT22;42438;53.174;6.730;2022-12-11T04:44:38;-0.10;99.90
56542;DHT22;42438;53.174;6.730;2022-12-11T04:47:08;-0.20;99.90
56542;DHT22;42438;53.174;6.730;2022-12-11T04:49:39;0.00;99.90
56542;DHT22;42438;53.174;6.730;2022-12-11T04:52:10;-0.10;99.90
56542;DHT22;42438;53.174;6.730;2022-12-11T04:54:40;-0.20;99.90
56542;DHT22;42438;53.174;6.730;2022-12-11T04:57:11;0.70;99.90
56542;DHT22;42438;53.174;6.730;2022-12-11T04:59:42;0.00;99.90
56542;DHT22;42438;53.174;6.730;2022-12-11T05:02:13;0.00;99.90
56542;DHT22;42438;53.174;6.730;2022-12-11T05:04:44;0.10;99.90
56542;DHT22;42438;53.174;6.730;2022-12-11T05:07:14;0.20;99.90
56542;DHT22;42438;53.174;6.730;2022-12-11T05:09:46;0.00;99.90
56542;DHT22;42438;53.174;6.730;2022-12-11T05:12:17;-0.10;99.90
56542;DHT22;42438;53.174;6.730;2022-12-11T05:14:51;0.00;99.90
56542;DHT22;42438;53.174;6.730;2022-12-11T05:17:22;0.10;99.90
56542;DHT22;42438;53.174;6.730;2022-12-11T05:19:53;0.20;99.90
56542;DHT22;42438;53.174;6.730;2022-12-11T05:22:24;-0.10;99.90
56542;DHT22;42438;53.174;6.730;2022-12-11T05:24:54;-0.10;99.90
56542;DHT22;42438;53.174;6.730;2022-12-11T05:27:25;1.00;99.90
56542;DHT22;42438;53.174;6.730;2022-12-11T05:29:56;-0.20;99.90
56542;DHT22;42438;53.174;6.730;2022-12-11T05:32:27;-0.20;99.90
56542;DHT22;42438;53.174;6.730;2022-12-11T05:34:58;0.10;99.90
56542;DHT22;42438;53.174;6.730;2022-12-11T05:37:28;-0.20;99.90
56542;DHT22;42438;53.174;6.730;2022-12-11T05:39:59;0.40;99.90
56542;DHT22;42438;53.174;6.730;2022-12-11T05:42:30;-0.10;99.90
56542;DHT22;42438;53.174;6.730;2022-12-11T05:45:00;0.00;99.90
56542;DHT22;42438;53.174;6.730;2022-12-11T05:47:31;0.50;99.90
56542;DHT22;42438;53.174;6.730;2022-12-11T05:50:02;0.40;99.90
56542;DHT22;42438;53.174;6.730;2022-12-11T05:52:33;-0.20;99.90
56542;DHT22;42438;53.174;6.730;2022-12-11T05:55:04;0.20;99.90
56542;DHT22;42438;53.174;6.730;2022-12-11T05:57:34;-0.20;99.90
56542;DHT22;42438;53.174;6.730;2022-12-11T06:00:06;0.10;99.90
56542;DHT22;42438;53.174;6.730;2022-12-11T06:02:36;-0.30;99.90
56542;DHT22;42438;53.174;6.730;2022-12-11T06:05:07;0.40;99.90
56542;DHT22;42438;53.174;6.730;2022-12-11T06:07:38;-0.20;99.90
56542;DHT22;42438;53.174;6.730;2022-12-11T06:10:09;0.20;99.90
56542;DHT22;42438;53.174;6.730;2022-12-11T06:12:40;-0.10;99.90
56542;DHT22;42438;53.174;6.730;2022-12-11T06:15:10;-0.10;99.90
56542;DHT22;42438;53.174;6.730;2022-12-11T06:17:41;0.10;99.90
56542;DHT22;42438;53.174;6.730;2022-12-11T06:20:12;-0.10;99.90
56542;DHT22;42438;53.174;6.730;2022-12-11T06:22:42;-0.10;99.90
56542;DHT22;42438;53.174;6.730;2022-12-11T06:25:13;0.20;99.90
56542;DHT22;42438;53.174;6.730;2022-12-11T06:27:44;0.10;99.90
56542;DHT22;42438;53.174;6.730;2022-12-11T06:30:14;0.00;99.90
56542;DHT22;42438;53.174;6.730;2022-12-11T06:32:46;0.20;99.90
56542;DHT22;42438;53.174;6.730;2022-12-11T06:35:17;0.00;99.90
56542;DHT22;42438;53.174;6.730;2022-12-11T06:37:48;0.00;99.90
56542;DHT22;42438;53.174;6.730;2022-12-11T06:40:19;0.70;99.90
56542;DHT22;42438;53.174;6.730;2022-12-11T06:42:49;0.00;99.90
56542;DHT22;42438;53.174;6.730;2022-12-11T06:45:20;0.10;99.90
56542;DHT22;42438;53.174;6.730;2022-12-11T06:47:51;0.30;99.90
56542;DHT22;42438;53.174;6.730;2022-12-11T06:50:21;0.10;99.90
56542;DHT22;42438;53.174;6.730;2022-12-11T06:52:52;0.00;99.90
56542;DHT22;42438;53.174;6.730;2022-12-11T06:55:23;0.60;99.90
56542;DHT22;42438;53.174;6.730;2022-12-11T06:57:53;0.10;99.90
56542;DHT22;42438;53.174;6.730;2022-12-11T07:00:24;0.20;99.90
56542;DHT22;42438;53.174;6.730;2022-12-11T07:02:55;0.00;99.90
56542;DHT22;42438;53.174;6.730;2022-12-11T07:05:25;0.80;99.90
56542;DHT22;42438;53.174;6.730;2022-12-11T07:07:57;0.00;99.90
56542;DHT22;42438;53.174;6.730;2022-12-11T07:10:27;0.20;99.90
56542;DHT22;42438;53.174;6.730;2022-12-11T07:12:58;0.20;99.90
56542;DHT22;42438;53.174;6.730;2022-12-11T07:15:29;0.20;99.90
56542;DHT22;42438;53.174;6.730;2022-12-11T07:17:59;0.30;99.90
56542;DHT22;42438;53.174;6.730;2022-12-11T07:20:30;0.10;99.90
56542;DHT22;42438;53.174;6.730;2022-12-11T07:23:01;0.30;99.90
56542;DHT22;42438;53.174;6.730;2022-12-11T07:25:31;0.00;99.90
56542;DHT22;42438;53.174;6.730;2022-12-11T07:28:02;0.00;99.90
56542;DHT22;42438;53.174;6.730;2022-12-11T07:30:33;-0.10;99.90
56542;DHT22;42438;53.174;6.730;2022-12-11T07:33:03;1.20;99.90
56542;DHT22;42438;53.174;6.730;2022-12-11T07:35:35;1.20;99.90
56542;DHT22;42438;53.174;6.730;2022-12-11T07:38:05;0.50;99.90
56542;DHT22;42438;53.174;6.730;2022-12-11T07:40:36;1.20;99.90
56542;DHT22;42438;53.174;6.730;2022-12-11T07:43:07;0.20;99.90
56542;DHT22;42438;53.174;6.730;2022-12-11T07:45:38;0.00;99.90
56542;DHT22;42438;53.174;6.730;2022-12-11T07:48:09;0.30;99.90
56542;DHT22;42438;53.174;6.730;2022-12-11T07:50:39;0.20;99.90
56542;DHT22;42438;53.174;6.730;2022-12-11T07:53:10;0.20;99.90
56542;DHT22;42438;53.174;6.730;2022-12-11T07:55:41;0.20;99.90
56542;DHT22;42438;53.174;6.730;2022-12-11T07:58:11;0.20;99.90
56542;DHT22;42438;53.174;6.730;2022-12-11T08:00:43;0.20;99.90
56542;DHT22;42438;53.174;6.730;2022-12-11T08:03:14;0.30;99.90
56542;DHT22;42438;53.174;6.730;2022-12-11T08:05:48;0.10;99.90
56542;DHT22;42438;53.174;6.730;2022-12-11T08:08:19;0.70;99.90
56542;DHT22;42438;53.174;6.730;2022-12-11T08:10:50;0.40;99.90
56542;DHT22;42438;53.174;6.730;2022-12-11T08:13:20;1.20;99.90
56542;DHT22;42438;53.174;6.730;2022-12-11T08:15:51;1.10;99.90
56542;DHT22;42438;53.174;6.730;2022-12-11T08:18:22;0.00;99.90
56542;DHT22;42438;53.174;6.730;2022-12-11T08:20:53;0.50;99.90
56542;DHT22;42438;53.174;6.730;2022-12-11T08:23:24;0.20;99.90
56542;DHT22;42438;53.174;6.730;2022-12-11T08:25:54;0.70;99.90
56542;DHT22;42438;53.174;6.730;2022-12-11T08:28:25;0.40;99.90
56542;DHT22;42438;53.174;6.730;2022-12-11T08:30:56;0.10;99.90
56542;DHT22;42438;53.174;6.730;2022-12-11T08:33:26;0.50;99.90
56542;DHT22;42438;53.174;6.730;2022-12-11T08:35:57;0.30;99.90
56542;DHT22;42438;53.174;6.730;2022-12-11T08:38:28;0.30;99.90
56542;DHT22;42438;53.174;6.730;2022-12-11T08:41:10;0.50;99.90
56542;DHT22;42438;53.174;6.730;2022-12-11T08:43:41;0.10;99.90
56542;DHT22;42438;53.174;6.730;2022-12-11T08:46:13;0.80;99.90
56542;DHT22;42438;53.174;6.730;2022-12-11T08:48:44;0.10;99.90
56542;DHT22;42438;53.174;6.730;2022-12-11T08:51:18;0.30;99.90
56542;DHT22;42438;53.174;6.730;2022-12-11T08:53:50;0.10;99.90
56542;DHT22;42438;53.174;6.730;2022-12-11T08:56:23;0.40;99.90
56542;DHT22;42438;53.174;6.730;2022-12-11T08:58:54;0.60;99.90
56542;DHT22;42438;53.174;6.730;2022-12-11T09:01:26;0.40;99.90
56542;DHT22;42438;53.174;6.730;2022-12-11T09:03:57;0.40;99.90
56542;DHT22;42438;53.174;6.730;2022-12-11T09:06:31;0.50;99.90
56542;DHT22;42438;53.174;6.730;2022-12-11T09:09:02;1.40;99.90
56542;DHT22;42438;53.174;6.730;2022-12-11T09:11:35;0.20;99.90
56542;DHT22;42438;53.174;6.730;2022-12-11T09:14:06;0.20;99.90
56542;DHT22;42438;53.174;6.730;2022-12-11T09:16:38;0.90;99.90
56542;DHT22;42438;53.174;6.730;2022-12-11T09:19:13;0.40;99.90
56542;DHT22;42438;53.174;6.730;2022-12-11T09:21:44;0.60;99.90
56542;DHT22;42438;53.174;6.730;2022-12-11T09:24:15;0.40;99.90
56542;DHT22;42438;53.174;6.730;2022-12-11T09:26:45;0.50;99.90
56542;DHT22;42438;53.174;6.730;2022-12-11T09:29:16;0.20;99.90
56542;DHT22;42438;53.174;6.730;2022-12-11T09:31:47;0.10;99.90
56542;DHT22;42438;53.174;6.730;2022-12-11T09:34:19;0.30;99.90
56542;DHT22;42438;53.174;6.730;2022-12-11T09:36:50;1.00;99.90
56542;DHT22;42438;53.174;6.730;2022-12-11T09:39:21;0.90;99.90
56542;DHT22;42438;53.174;6.730;2022-12-11T09:47:02;0.20;99.90
56542;DHT22;42438;53.174;6.730;2022-12-11T09:49:42;0.20;99.90
56542;DHT22;42438;53.174;6.730;2022-12-11T09:52:31;0.50;99.90
56542;DHT22;42438;53.174;6.730;2022-12-11T09:55:18;0.60;99.90
56542;DHT22;42438;53.174;6.730;2022-12-11T10:00:52;0.40;99.90
56542;DHT22;42438;53.174;6.730;2022-12-11T10:03:45;0.30;99.90
56542;DHT22;42438;53.174;6.730;2022-12-11T10:06:28;0.30;99.90
56542;DHT22;42438;53.174;6.730;2022-12-11T10:17:43;0.30;99.90
56542;DHT22;42438;53.174;6.730;2022-12-11T10:20:22;1.50;99.90
56542;DHT22;42438;53.174;6.730;2022-12-11T10:22:54;0.40;99.90
56542;DHT22;42438;53.174;6.730;2022-12-11T10:25:28;0.40;99.90
56542;DHT22;42438;53.174;6.730;2022-12-11T10:28:13;1.50;99.90
56542;DHT22;42438;53.174;6.730;2022-12-11T10:30:59;0.40;99.90
56542;DHT22;42438;53.174;6.730;2022-12-11T10:36:23;0.50;99.90
56542;DHT22;42438;53.174;6.730;2022-12-11T10:38:55;1.00;99.90
56542;DHT22;42438;53.174;6.730;2022-12-11T10:41:38;0.40;99.90
56542;DHT22;42438;53.174;6.730;2022-12-11T10:47:02;0.40;99.90
56542;DHT22;42438;53.174;6.730;2022-12-11T10:49:35;0.40;99.90
56542;DHT22;42438;53.174;6.730;2022-12-11T10:52:21;0.50;99.90
56542;DHT22;42438;53.174;6.730;2022-12-11T10:55:01;0.40;99.90
56542;DHT22;42438;53.174;6.730;2022-12-11T10:57:35;0.30;99.90
56542;DHT22;42438;53.174;6.730;2022-12-11T11:00:07;0.30;99.90
56542;DHT22;42438;53.174;6.730;2022-12-11T11:02:55;0.40;99.90
56542;DHT22;42438;53.174;6.730;2022-12-11T11:05:31;0.30;99.90
56542;DHT22;42438;53.174;6.730;2022-12-11T11:08:19;0.40;99.90
56542;DHT22;42438;53.174;6.730;2022-12-11T11:10:59;0.50;99.90
56542;DHT22;42438;53.174;6.730;2022-12-11T11:13:30;0.60;99.90
56542;DHT22;42438;53.174;6.730;2022-12-11T11:16:06;0.40;99.90
56542;DHT22;42438;53.174;6.730;2022-12-11T11:18:40;0.60;99.90
56542;DHT22;42438;53.174;6.730;2022-12-11T11:21:19;0.60;99.90
56542;DHT22;42438;53.174;6.730;2022-12-11T11:23:51;0.50;99.90
56542;DHT22;42438;53.174;6.730;2022-12-11T11:26:22;1.30;99.90
56542;DHT22;42438;53.174;6.730;2022-12-11T11:28:57;0.60;99.90
56542;DHT22;42438;53.174;6.730;2022-12-11T11:31:33;0.60;99.90
56542;DHT22;42438;53.174;6.730;2022-12-11T11:34:13;0.50;99.90
56542;DHT22;42438;53.174;6.730;2022-12-11T11:36:56;0.70;99.90
56542;DHT22;42438;53.174;6.730;2022-12-11T11:39:46;0.60;99.90
56542;DHT22;42438;53.174;6.730;2022-12-11T11:42:21;0.60;99.90
56542;DHT22;42438;53.174;6.730;2022-12-11T11:45:42;0.50;99.90
56542;DHT22;42438;53.174;6.730;2022-12-11T11:51:15;0.70;99.90
56542;DHT22;42438;53.174;6.730;2022-12-11T11:53:50;0.70;99.90
56542;DHT22;42438;53.174;6.730;2022-12-11T11:56:30;0.50;99.90
56542;DHT22;42438;53.174;6.730;2022-12-11T11:59:24;0.60;99.90
56542;DHT22;42438;53.174;6.730;2022-12-11T12:01:57;0.50;99.90
56542;DHT22;42438;53.174;6.730;2022-12-11T12:04:33;0.60;99.90
56542;DHT22;42438;53.174;6.730;2022-12-11T12:10:06;0.50;99.90
56542;DHT22;42438;53.174;6.730;2022-12-11T12:13:06;0.60;99.90
56542;DHT22;42438;53.174;6.730;2022-12-11T12:15:50;0.70;99.90
56542;DHT22;42438;53.174;6.730;2022-12-11T12:18:57;0.50;99.90
56542;DHT22;42438;53.174;6.730;2022-12-11T12:21:36;0.60;99.90
56542;DHT22;42438;53.174;6.730;2022-12-11T12:24:54;0.80;99.90
56542;DHT22;42438;53.174;6.730;2022-12-11T12:27:29;0.60;99.90
56542;DHT22;42438;53.174;6.730;2022-12-11T12:30:14;0.60;99.90
56542;DHT22;42438;53.174;6.730;2022-12-11T12:33:06;0.80;99.90
56542;DHT22;42438;53.174;6.730;2022-12-11T12:36:13;0.70;99.90
56542;DHT22;42438;53.174;6.730;2022-12-11T12:38:53;0.70;99.90
56542;DHT22;42438;53.174;6.730;2022-12-11T12:44:16;0.60;99.90
56542;DHT22;42438;53.174;6.730;2022-12-11T12:46:59;0.70;99.90
56542;DHT22;42438;53.174;6.730;2022-12-11T12:49:39;0.70;99.90
56542;DHT22;42438;53.174;6.730;2022-12-11T12:52:21;0.70;99.90
56542;DHT22;42438;53.174;6.730;2022-12-11T12:55:00;0.80;99.90
56542;DHT22;42438;53.174;6.730;2022-12-11T13:00:41;0.80;99.90
56542;DHT22;42438;53.174;6.730;2022-12-11T13:03:18;0.90;99.90
56542;DHT22;42438;53.174;6.730;2022-12-11T13:06:07;0.70;99.90
56542;DHT22;42438;53.174;6.730;2022-12-11T13:08:40;0.70;99.90
56542;DHT22;42438;53.174;6.730;2022-12-11T13:11:12;0.90;99.90
56542;DHT22;42438;53.174;6.730;2022-12-11T13:16:39;0.90;99.90
56542;DHT22;42438;53.174;6.730;2022-12-11T13:24:56;0.80;99.90
56542;DHT22;42438;53.174;6.730;2022-12-11T13:27:38;0.70;99.90
56542;DHT22;42438;53.174;6.730;2022-12-11T13:33:01;0.70;99.90
56542;DHT22;42438;53.174;6.730;2022-12-11T13:35:33;0.90;99.90
56542;DHT22;42438;53.174;6.730;2022-12-11T13:38:23;0.60;99.90
56542;DHT22;42438;53.174;6.730;2022-12-11T13:40:55;0.80;99.90
56542;DHT22;42438;53.174;6.730;2022-12-11T13:43:28;0.70;99.90
56542;DHT22;42438;53.174;6.730;2022-12-11T13:46:03;0.70;99.90
56542;DHT22;42438;53.174;6.730;2022-12-11T13:48:46;0.80;99.90
56542;DHT22;42438;53.174;6.730;2022-12-11T13:51:19;0.70;99.90
56542;DHT22;42438;53.174;6.730;2022-12-11T13:54:03;1.00;99.90
56542;DHT22;42438;53.174;6.730;2022-12-11T13:56:34;0.70;99.90
56542;DHT22;42438;53.174;6.730;2022-12-11T13:59:40;0.80;99.90
56542;DHT22;42438;53.174;6.730;2022-12-11T14:05:08;0.70;99.90
56542;DHT22;42438;53.174;6.730;2022-12-11T14:07:43;0.70;99.90
56542;DHT22;42438;53.174;6.730;2022-12-11T14:10:21;1.40;99.90
56542;DHT22;42438;53.174;6.730;2022-12-11T14:13:05;0.80;99.90
56542;DHT22;42438;53.174;6.730;2022-12-11T14:15:36;1.20;99.90
56542;DHT22;42438;53.174;6.730;2022-12-11T14:18:16;0.60;99.90
56542;DHT22;42438;53.174;6.730;2022-12-11T14:20:53;0.70;99.90
56542;DHT22;42438;53.174;6.730;2022-12-11T14:23:27;0.80;99.90
56542;DHT22;42438;53.174;6.730;2022-12-11T14:25:59;0.80;99.90
56542;DHT22;42438;53.174;6.730;2022-12-11T14:28:36;0.60;99.90
56542;DHT22;42438;53.174;6.730;2022-12-11T14:31:08;0.60;99.90
56542;DHT22;42438;53.174;6.730;2022-12-11T14:33:46;0.60;99.90
56542;DHT22;42438;53.174;6.730;2022-12-11T14:36:18;1.40;99.90
56542;DHT22;42438;53.174;6.730;2022-12-11T14:39:03;0.70;99.90
56542;DHT22;42438;53.174;6.730;2022-12-11T14:41:47;0.60;99.90
56542;DHT22;42438;53.174;6.730;2022-12-11T14:44:21;0.70;99.90
56542;DHT22;42438;53.174;6.730;2022-12-11T14:47:18;0.60;99.90
56542;DHT22;42438;53.174;6.730;2022-12-11T14:52:29;0.50;99.90
56542;DHT22;42438;53.174;6.730;2022-12-11T14:57:57;0.50;99.90
56542;DHT22;42438;53.174;6.730;2022-12-11T15:00:31;0.70;99.90
56542;DHT22;42438;53.174;6.730;2022-12-11T15:03:05;0.50;99.90
56542;DHT22;42438;53.174;6.730;2022-12-11T15:05:48;0.60;99.90
56542;DHT22;42438;53.174;6.730;2022-12-11T15:08:25;0.70;99.90
56542;DHT22;42438;53.174;6.730;2022-12-11T15:13:36;0.60;99.90
56542;DHT22;42438;53.174;6.730;2022-12-11T15:16:13;0.60;99.90
56542;DHT22;42438;53.174;6.730;2022-12-11T15:18:48;0.60;99.90
56542;DHT22;42438;53.174;6.730;2022-12-11T15:21:34;0.60;99.90
56542;DHT22;42438;53.174;6.730;2022-12-11T15:24:05;0.70;99.90
56542;DHT22;42438;53.174;6.730;2022-12-11T15:26:38;0.50;99.90
56542;DHT22;42438;53.174;6.730;2022-12-11T15:34:54;0.50;99.90
56542;DHT22;42438;53.174;6.730;2022-12-11T15:37:29;0.60;99.90
56542;DHT22;42438;53.174;6.730;2022-12-11T15:40:01;0.50;99.90
56542;DHT22;42438;53.174;6.730;2022-12-11T15:42:40;0.60;99.90
56542;DHT22;42438;53.174;6.730;2022-12-11T15:45:16;0.60;99.90
56542;DHT22;42438;53.174;6.730;2022-12-11T15:47:48;0.70;99.90
56542;DHT22;42438;53.174;6.730;2022-12-11T15:52:52;0.50;99.90
56542;DHT22;42438;53.174;6.730;2022-12-11T15:55:26;0.60;99.90
56542;DHT22;42438;53.174;6.730;2022-12-11T15:58:02;0.60;99.90
56542;DHT22;42438;53.174;6.730;2022-12-11T16:00:34;0.60;99.90
56542;DHT22;42438;53.174;6.730;2022-12-11T16:03:04;1.50;99.90
56542;DHT22;42438;53.174;6.730;2022-12-11T16:05:35;1.00;99.90
56542;DHT22;42438;53.174;6.730;2022-12-11T16:08:06;0.60;99.90
56542;DHT22;42438;53.174;6.730;2022-12-11T16:10:37;0.50;99.90
56542;DHT22;42438;53.174;6.730;2022-12-11T16:13:08;0.80;99.90
56542;DHT22;42438;53.174;6.730;2022-12-11T16:15:44;1.00;99.90
56542;DHT22;42438;53.174;6.730;2022-12-11T16:18:18;0.50;99.90
56542;DHT22;42438;53.174;6.730;2022-12-11T16:20:50;0.50;99.90
56542;DHT22;42438;53.174;6.730;2022-12-11T16:23:21;0.40;99.90
56542;DHT22;42438;53.174;6.730;2022-12-11T16:25:52;0.60;99.90
56542;DHT22;42438;53.174;6.730;2022-12-11T16:28:22;0.40;99.90
56542;DHT22;42438;53.174;6.730;2022-12-11T16:30:53;0.40;99.90
56542;DHT22;42438;53.174;6.730;2022-12-11T16:33:24;0.70;99.90
56542;DHT22;42438;53.174;6.730;2022-12-11T16:35:54;0.50;99.90
56542;DHT22;42438;53.174;6.730;2022-12-11T16:38:25;0.60;99.90
56542;DHT22;42438;53.174;6.730;2022-12-11T16:41:00;0.40;99.90
56542;DHT22;42438;53.174;6.730;2022-12-11T16:43:31;0.40;99.90
56542;DHT22;42438;53.174;6.730;2022-12-11T16:46:03;0.40;99.90
56542;DHT22;42438;53.174;6.730;2022-12-11T16:48:33;0.30;99.90
56542;DHT22;42438;53.174;6.730;2022-12-11T16:51:04;0.80;99.90
56542;DHT22;42438;53.174;6.730;2022-12-11T16:53:36;0.40;99.90
56542;DHT22;42438;53.174;6.730;2022-12-11T16:56:07;0.50;99.90
56542;DHT22;42438;53.174;6.730;2022-12-11T16:58:38;0.30;99.90
56542;DHT22;42438;53.174;6.730;2022-12-11T17:01:11;0.30;99.90
56542;DHT22;42438;53.174;6.730;2022-12-11T17:03:43;0.30;99.90
56542;DHT22;42438;53.174;6.730;2022-12-11T17:06:15;0.50;99.90
56542;DHT22;42438;53.174;6.730;2022-12-11T17:08:47;0.30;99.90
56542;DHT22;42438;53.174;6.730;2022-12-11T17:11:19;0.40;99.90
56542;DHT22;42438;53.174;6.730;2022-12-11T17:13:54;0.50;99.90
56542;DHT22;42438;53.174;6.730;2022-12-11T17:16:26;0.40;99.90
56542;DHT22;42438;53.174;6.730;2022-12-11T17:18:59;0.40;99.90
56542;DHT22;42438;53.174;6.730;2022-12-11T17:21:31;0.50;99.90
56542;DHT22;42438;53.174;6.730;2022-12-11T17:24:01;0.30;99.90
56542;DHT22;42438;53.174;6.730;2022-12-11T17:26:33;0.40;99.90
56542;DHT22;42438;53.174;6.730;2022-12-11T17:29:04;0.30;99.90
56542;DHT22;42438;53.174;6.730;2022-12-11T17:31:34;0.50;99.90
56542;DHT22;42438;53.174;6.730;2022-12-11T17:34:05;0.30;99.90
56542;DHT22;42438;53.174;6.730;2022-12-11T17:36:36;0.50;99.90
56542;DHT22;42438;53.174;6.730;2022-12-11T17:39:07;0.60;99.90
56542;DHT22;42438;53.174;6.730;2022-12-11T17:41:37;0.50;99.90
56542;DHT22;42438;53.174;6.730;2022-12-11T17:44:08;0.30;99.90
56542;DHT22;42438;53.174;6.730;2022-12-11T17:46:39;0.50;99.90